Time;durP1;ratioP1;P1;durP2;ratioP2;P2;SDS_P1;SDS_P2;PMS_P1;PMS_P2;Temp;Humidity;BMP_temperature;BMP_pressure;BME280_temperature;BME280_humidity;BME280_pressure;Samples;Min_cycle;Max_cycle;Signal;HPM_P1;HPM_P2
2023/10/11 00:01:01;;;;;;;12.43;6.87;;;;;;;15.81;100.00;101293.34;4984744;28;20815;-76
2023/10/11 00:05:53;;;;;;;13.70;6.93;;;;;;;16.33;100.00;101385.88;4980482;28;21024;-76
2023/10/11 00:08:25;;;;;;;14.60;6.57;;;;;;;15.95;100.00;101330.03;4981045;28;20480;-76
2023/10/11 00:10:55;;;;;;;12.40;7.27;;;;;;;16.57;100.00;101432.09;4978076;28;20640;-76
2023/10/11 00:13:24;;;;;;;14.23;7.37;;;;;;;16.53;100.00;101439.00;4978951;28;20503;-76
2023/10/11 00:15:52;;;;;;;16.77;7.13;;;;;;;15.82;100.00;101340.97;4983707;28;20440;-76
2023/10/11 00:18:20;;;;;;;16.40;6.93;;;;;;;16.01;100.00;101356.19;4980333;28;20814;-77
2023/10/11 00:20:50;;;;;;;17.87;8.70;;;;;;;16.19;100.00;101400.59;4981730;28;20457;-76
2023/10/11 00:23:20;;;;;;;15.80;7.13;;;;;;;16.21;100.00;101409.31;4980571;28;20480;-77
2023/10/11 00:25:46;;;;;;;14.60;7.80;;;;;;;15.77;100.00;101332.72;4979067;28;20477;-77
2023/10/11 00:28:14;;;;;;;15.73;8.47;;;;;;;15.79;100.00;101339.56;4981576;28;20456;-76
2023/10/11 00:30:40;;;;;;;16.30;7.70;;;;;;;16.42;100.00;101435.97;4974689;28;20441;-76
2023/10/11 00:33:07;;;;;;;19.97;9.13;;;;;;;16.03;100.00;101375.75;4977360;28;20446;-76
2023/10/11 00:35:41;;;;;;;13.40;7.00;;;;;;;15.92;100.00;101365.66;4977299;28;20181;-76
2023/10/11 00:38:11;;;;;;;22.00;10.30;;;;;;;16.21;100.00;101393.91;4977198;28;20471;-77
2023/10/11 00:40:37;;;;;;;24.13;9.07;;;;;;;16.56;100.00;101465.63;4982014;28;20440;-76
2023/10/11 00:43:02;;;;;;;21.37;10.30;;;;;;;16.30;100.00;101426.94;4983141;28;20883;-76
2023/10/11 00:45:36;;;;;;;18.37;8.23;;;;;;;16.41;100.00;101474.13;4984140;28;20249;-77
2023/10/11 00:48:06;;;;;;;19.77;9.43;;;;;;;16.40;100.00;101448.94;4983867;28;20599;-77
2023/10/11 00:50:32;;;;;;;20.87;8.83;;;;;;;16.24;100.00;101438.66;4981312;28;20429;-77
2023/10/11 00:53:00;;;;;;;17.90;8.40;;;;;;;16.31;100.00;101447.53;4982800;28;20803;-77
2023/10/11 00:55:29;;;;;;;19.30;8.87;;;;;;;15.74;100.00;101369.13;4983943;28;20193;-77
2023/10/11 00:57:57;;;;;;;17.80;8.97;;;;;;;16.27;100.00;101468.81;4985027;28;20448;-77
2023/10/11 01:00:23;;;;;;;22.97;10.33;;;;;;;16.41;100.00;101480.34;4983533;28;20519;-76
2023/10/11 01:02:52;;;;;;;17.47;8.87;;;;;;;16.27;100.00;101465.28;4983017;28;20444;-77
2023/10/11 01:05:22;;;;;;;17.40;8.60;;;;;;;16.45;100.00;101472.59;4985801;28;20214;-77
2023/10/11 01:07:50;;;;;;;22.03;8.83;;;;;;;16.36;100.00;101482.88;4983771;28;20452;-77
2023/10/11 01:10:16;;;;;;;16.17;8.47;;;;;;;15.65;100.00;101375.84;4986007;28;20481;-77
2023/10/11 01:12:42;;;;;;;16.40;9.40;;;;;;;16.41;100.00;101493.88;4984108;28;21021;-76
2023/10/11 01:15:11;;;;;;;20.53;9.97;;;;;;;16.28;100.00;101496.69;4986265;28;20527;-76
2023/10/11 01:17:38;;;;;;;18.93;8.97;;;;;;;15.52;100.00;101384.03;4987745;28;20187;-76
2023/10/11 01:20:13;;;;;;;23.23;10.20;;;;;;;15.61;100.00;101409.75;4985996;28;20750;-76
2023/10/11 01:22:41;;;;;;;21.33;9.73;;;;;;;15.58;100.00;101400.19;4986816;28;20448;-77
2023/10/11 01:25:07;;;;;;;19.97;10.40;;;;;;;16.21;100.00;101506.75;4982350;28;20437;-76
2023/10/11 01:27:36;;;;;;;20.43;9.60;;;;;;;16.27;100.00;101524.81;4985616;28;20441;-76
2023/10/11 01:30:03;;;;;;;26.00;11.60;;;;;;;16.07;100.00;101506.03;4981008;28;20515;-76
2023/10/11 01:32:29;;;;;;;22.17;10.10;;;;;;;15.76;100.00;101490.59;4982499;28;20535;-76
2023/10/11 01:34:54;;;;;;;21.93;10.10;;;;;;;16.16;100.00;101536.34;4983411;28;20536;-75
2023/10/11 01:37:20;;;;;;;20.13;9.77;;;;;;;15.68;100.00;101461.09;4984736;28;20269;-76
2023/10/11 01:39:46;;;;;;;20.30;10.30;;;;;;;15.42;100.00;101435.88;4980230;28;20670;-76
2023/10/11 01:42:11;;;;;;;19.00;10.43;;;;;;;15.53;100.00;101454.09;4984374;28;20182;-77
2023/10/11 01:44:38;;;;;;;22.70;10.43;;;;;;;15.99;100.00;101536.88;4984743;28;20496;-76
2023/10/11 01:47:05;;;;;;;27.40;10.93;;;;;;;15.76;100.00;101502.25;4983831;28;20306;-76
2023/10/11 01:49:37;;;;;;;17.30;9.47;;;;;;;15.57;100.00;101479.66;4984348;28;20469;-77
2023/10/11 01:52:06;;;;;;;19.23;11.30;;;;;;;15.77;100.00;101524.75;4981931;28;20946;-77
2023/10/11 01:54:34;;;;;;;21.40;10.77;;;;;;;15.94;100.00;101561.06;4980840;28;20551;-76
2023/10/11 01:57:01;;;;;;;17.70;9.53;;;;;;;16.19;100.00;101581.94;4977989;28;20473;-75
2023/10/11 01:59:27;;;;;;;23.27;11.00;;;;;;;15.63;100.00;101496.91;4982172;28;20466;-76
2023/10/11 02:02:01;;;;;;;19.97;9.60;;;;;;;15.62;100.00;101516.03;4983558;28;20429;-76
2023/10/11 02:04:29;;;;;;;22.40;9.03;;;;;;;15.84;100.00;101530.94;4984407;28;20213;-76
2023/10/11 02:06:54;;;;;;;21.57;10.87;;;;;;;16.18;100.00;101604.63;4983402;28;20500;-76
2023/10/11 02:09:21;;;;;;;21.50;11.40;;;;;;;15.53;100.00;101501.94;4982286;28;20516;-76
2023/10/11 02:11:51;;;;;;;23.53;10.73;;;;;;;15.90;100.00;101543.59;4987244;28;20710;-76
2023/10/11 02:14:18;;;;;;;20.00;9.40;;;;;;;15.79;100.00;101542.41;4985177;28;20444;-77
2023/10/11 02:16:43;;;;;;;33.63;11.40;;;;;;;15.49;100.00;101495.31;4984043;28;20432;-76
2023/10/11 02:19:09;;;;;;;21.70;11.00;;;;;;;15.49;100.00;101490.72;4984260;28;20472;-76
2023/10/11 02:21:36;;;;;;;23.60;11.03;;;;;;;15.89;100.00;101558.16;4985871;28;20181;-76
2023/10/11 02:24:04;;;;;;;28.10;11.77;;;;;;;15.55;100.00;101514.19;4986029;28;20205;-76
2023/10/11 02:26:34;;;;;;;26.27;11.70;;;;;;;16.15;100.00;101605.91;4981722;28;20554;-76
2023/10/11 02:29:16;;;;;;;26.67;10.87;;;;;;;15.94;100.00;101577.28;4982410;28;20492;-76
2023/10/11 02:31:41;;;;;;;23.13;11.00;;;;;;;15.82;100.00;101563.63;4984672;28;20451;-76
2023/10/11 02:34:13;;;;;;;18.77;10.17;;;;;;;15.97;100.00;101582.28;4980253;28;20445;-76
2023/10/11 02:36:42;;;;;;;24.83;10.90;;;;;;;16.02;100.00;101590.53;4981589;28;20197;-76
2023/10/11 02:39:17;;;;;;;23.20;11.20;;;;;;;15.21;100.00;101476.72;4976153;28;20479;-76
2023/10/11 02:41:46;;;;;;;20.10;9.97;;;;;;;15.33;100.00;101502.03;4984414;28;20444;-76
2023/10/11 02:44:12;;;;;;;22.87;10.10;;;;;;;15.13;100.00;101481.31;4982309;28;20507;-76
2023/10/11 02:46:37;;;;;;;24.53;9.73;;;;;;;15.58;100.00;101559.72;4980572;28;20473;-76
2023/10/11 02:49:07;;;;;;;20.00;9.53;;;;;;;15.92;100.00;101606.44;4979416;28;20465;-76
2023/10/11 02:51:33;;;;;;;24.77;11.20;;;;;;;15.79;100.00;101606.47;4984776;28;20209;-76
2023/10/11 02:54:03;;;;;;;28.47;11.47;;;;;;;15.26;100.00;101541.75;4985892;28;20482;-76
2023/10/11 02:56:29;;;;;;;33.57;12.57;;;;;;;15.71;100.00;101612.16;4983722;28;21013;-76
2023/10/11 02:58:55;;;;;;;26.80;10.33;;;;;;;15.34;100.00;101563.16;4982660;28;20541;-77
2023/10/11 03:01:20;;;;;;;21.07;10.00;;;;;;;15.88;100.00;101658.47;4983609;28;20785;-77
2023/10/11 03:03:52;;;;;;;18.50;9.73;;;;;;;15.23;100.00;101580.84;4983437;28;20277;-76
2023/10/11 03:06:18;;;;;;;21.13;9.13;;;;;;;15.85;100.00;101662.44;4982850;28;20572;-76
2023/10/11 03:08:44;;;;;;;21.40;9.90;;;;;;;15.78;100.00;101675.97;4981738;28;20851;-76
2023/10/11 03:11:15;;;;;;;21.80;10.83;;;;;;;15.38;100.00;101602.22;4979335;28;20788;-76
2023/10/11 03:13:42;;;;;;;24.10;12.70;;;;;;;15.77;100.00;101687.84;4983221;28;20456;-76
2023/10/11 03:16:17;;;;;;;21.60;10.80;;;;;;;15.75;100.00;101681.81;4983024;28;20451;-76
2023/10/11 03:18:46;;;;;;;22.43;10.67;;;;;;;15.27;100.00;101616.38;4981322;28;20452;-76
2023/10/11 03:21:17;;;;;;;20.57;9.87;;;;;;;15.89;100.00;101712.38;4979721;28;20447;-76
2023/10/11 03:23:45;;;;;;;21.70;10.57;;;;;;;16.01;100.00;101709.84;4981713;28;20477;-76
2023/10/11 03:26:18;;;;;;;25.77;11.40;;;;;;;16.05;100.00;101724.59;4986926;28;20479;-76
2023/10/11 03:28:58;;;;;;;22.47;11.57;;;;;;;15.80;100.00;101689.31;4982074;28;20811;-76
2023/10/11 03:31:28;;;;;;;29.33;11.73;;;;;;;15.82;100.00;101690.75;4986823;28;20511;-76
2023/10/11 03:33:57;;;;;;;27.43;11.27;;;;;;;16.01;100.00;101699.00;4984687;28;20487;-77
2023/10/11 03:36:43;;;;;;;25.83;10.67;;;;;;;15.47;100.00;101595.53;4983151;28;20439;-76
2023/10/11 03:39:14;;;;;;;22.43;9.23;;;;;;;15.88;100.00;101682.81;4978281;28;20452;-76
2023/10/11 03:41:45;;;;;;;20.30;9.90;;;;;;;15.75;100.00;101673.72;4980158;28;20976;-77
2023/10/11 03:44:17;;;;;;;22.20;11.63;;;;;;;15.71;100.00;101658.13;4979088;28;20539;-77
2023/10/11 03:46:47;;;;;;;28.90;10.27;;;;;;;15.66;100.00;101649.78;4993164;28;20834;-76
2023/10/11 03:51:46;;;;;;;18.77;10.67;;;;;;;15.29;100.00;101607.03;5074310;23;20528;-70
2023/10/11 03:54:18;;;;;;;20.37;10.93;;;;;;;15.99;100.00;101725.44;4970285;28;20491;-69
2023/10/11 03:56:50;;;;;;;21.53;9.50;;;;;;;15.60;100.00;101630.66;4973589;28;20437;-69
2023/10/11 03:59:16;;;;;;;27.37;11.67;;;;;;;15.66;100.00;101666.84;4970019;28;20478;-70
2023/10/11 04:01:43;;;;;;;25.60;11.03;;;;;;;15.94;100.00;101709.00;4970762;28;20512;-70
2023/10/11 04:04:08;;;;;;;24.77;11.93;;;;;;;15.93;100.00;101700.06;4974627;28;20738;-70
2023/10/11 04:06:34;;;;;;;20.30;10.40;;;;;;;15.48;100.00;101616.16;4971315;28;20469;-69
2023/10/11 04:09:03;;;;;;;23.93;10.20;;;;;;;16.05;100.00;101711.06;4968051;28;20240;-69
2023/10/11 04:11:53;;;;;;;18.60;9.37;;;;;;;15.71;100.00;101668.94;4965921;28;20449;-69
2023/10/11 04:14:24;;;;;;;18.33;10.70;;;;;;;15.60;100.00;101660.41;4974214;28;20479;-70
2023/10/11 04:16:52;;;;;;;25.80;11.93;;;;;;;15.85;100.00;101697.59;4979545;28;20507;-69
2023/10/11 04:19:21;;;;;;;18.93;10.07;;;;;;;15.92;100.00;101690.31;4975098;28;20951;-69
2023/10/11 04:24:19;;;;;;;18.33;9.30;;;;;;;15.73;100.00;101662.25;4973200;28;20492;-69
2023/10/11 04:26:53;;;;;;;19.10;9.97;;;;;;;15.76;100.00;101680.75;4973309;28;20476;-70
2023/10/11 04:29:19;;;;;;;29.90;11.33;;;;;;;15.69;100.00;101685.38;4978791;28;20563;-70
2023/10/11 04:34:32;;;;;;;22.40;9.77;;;;;;;15.81;100.00;101705.31;4977497;28;20181;-69
2023/10/11 04:37:00;;;;;;;21.20;9.30;;;;;;;15.92;100.00;101695.72;4977513;28;20445;-69
2023/10/11 04:39:33;;;;;;;22.43;9.43;;;;;;;15.79;100.00;101676.81;4972031;28;20536;-69
2023/10/11 04:42:00;;;;;;;21.90;10.40;;;;;;;16.01;100.00;101704.44;4978625;28;20444;-69
2023/10/11 04:44:31;;;;;;;26.60;10.37;;;;;;;15.50;100.00;101638.38;4985747;28;20437;-69
2023/10/11 04:46:58;;;;;;;18.67;9.30;;;;;;;16.09;100.00;101727.72;4978055;28;20473;-69
2023/10/11 04:49:25;;;;;;;29.20;9.70;;;;;;;15.90;100.00;101695.09;4973567;28;20453;-69
2023/10/11 04:51:55;;;;;;;28.17;9.87;;;;;;;15.62;100.00;101653.94;4978744;28;20456;-70
2023/10/11 04:54:36;;;;;;;24.40;9.80;;;;;;;15.35;100.00;101610.75;4977235;28;20624;-70
2023/10/11 04:57:07;;;;;;;21.60;9.77;;;;;;;16.04;100.00;101722.94;5001013;28;20446;-69
2023/10/11 05:01:58;;;;;;;25.77;9.97;;;;;;;15.85;100.00;101681.38;4978203;28;21049;-69
2023/10/11 05:04:33;;;;;;;23.20;9.20;;;;;;;16.10;100.00;101692.31;4980541;28;20476;-69
2023/10/11 05:07:09;;;;;;;19.10;9.40;;;;;;;16.09;100.00;101706.91;4983336;28;20213;-70
2023/10/11 05:09:39;;;;;;;22.97;8.90;;;;;;;16.09;100.00;101696.06;4988694;28;20520;-69
2023/10/11 05:12:10;;;;;;;21.53;9.30;;;;;;;15.82;100.00;101650.19;4987562;28;21096;-70
2023/10/11 05:14:40;;;;;;;26.13;10.30;;;;;;;15.91;100.00;101675.13;4987017;28;20446;-70
2023/10/11 05:19:56;;;;;;;20.17;8.20;;;;;;;16.14;100.00;101687.28;4987261;28;20437;-70
2023/10/11 05:22:29;;;;;;;19.33;9.13;;;;;;;15.99;100.00;101677.56;4991042;28;20429;-70
2023/10/11 05:32:54;;;;;;;23.70;10.30;;;;;;;16.01;100.00;101686.31;4988175;28;21138;-70
2023/10/11 05:51:27;;;;;;;20.03;9.80;;;;;;;15.64;100.00;101609.44;4984411;28;20452;-70
2023/10/11 05:53:59;;;;;;;23.33;8.50;;;;;;;15.75;100.00;101624.19;4986202;28;20815;-69
2023/10/11 05:56:25;;;;;;;21.13;9.10;;;;;;;15.76;100.00;101612.31;4984454;28;20186;-70
2023/10/11 05:58:52;;;;;;;20.57;9.47;;;;;;;15.89;100.00;101636.63;4984129;28;20459;-70
2023/10/11 06:01:22;;;;;;;36.07;9.87;;;;;;;15.83;100.00;101634.78;4982745;28;20989;-70
2023/10/11 06:03:51;;;;;;;20.80;9.87;;;;;;;15.97;100.00;101658.03;4977531;28;20946;-70
2023/10/11 06:09:17;;;;;;;24.13;10.20;;;;;;;15.45;100.00;101589.53;4983718;28;20456;-69
2023/10/11 06:11:50;;;;;;;20.63;9.37;;;;;;;15.93;100.00;101667.59;4985622;28;20440;-70
2023/10/11 06:14:19;;;;;;;20.73;9.20;;;;;;;15.99;100.00;101672.16;4980222;28;20440;-70
2023/10/11 06:16:56;;;;;;;25.07;10.17;;;;;;;16.03;100.00;101678.00;4985884;28;20426;-69
2023/10/11 06:19:28;;;;;;;28.30;11.23;;;;;;;15.60;100.00;101609.03;4980797;28;20440;-69
2023/10/11 06:21:58;;;;;;;25.00;9.63;;;;;;;15.62;100.00;101618.78;4977363;28;20440;-74
2023/10/11 06:24:30;;;;;;;24.37;10.17;;;;;;;16.07;100.00;101686.50;4982916;28;20502;-73
2023/10/11 06:26:56;;;;;;;24.03;9.27;;;;;;;16.07;100.00;101690.03;4979976;28;20567;-74
2023/10/11 06:29:23;;;;;;;26.50;10.17;;;;;;;15.81;100.00;101653.91;4984406;28;20454;-73
2023/10/11 06:31:49;;;;;;;16.70;7.93;;;;;;;15.34;100.00;101565.88;4985105;28;20469;-73
2023/10/11 06:34:24;;;;;;;23.90;9.03;;;;;;;15.71;100.00;101628.38;4983927;28;20444;-72
2023/10/11 06:36:50;;;;;;;20.20;9.57;;;;;;;16.17;100.00;101713.94;4983564;28;20445;-75
2023/10/11 06:42:13;;;;;;;18.60;9.50;;;;;;;16.02;100.00;101665.50;4987141;28;20428;-74
2023/10/11 06:44:48;;;;;;;20.63;9.43;;;;;;;16.22;100.00;101712.25;4985039;28;20448;-73
2023/10/11 06:47:15;;;;;;;20.40;9.10;;;;;;;16.23;100.00;101703.09;4984131;28;20587;-74
2023/10/11 06:49:44;;;;;;;17.27;9.13;;;;;;;16.32;100.00;101700.16;4987027;28;21117;-73
2023/10/11 06:52:19;;;;;;;19.90;8.00;;;;;;;16.39;100.00;101701.75;4987245;28;21021;-74
2023/10/11 06:54:47;;;;;;;16.07;7.77;;;;;;;16.41;100.00;101691.53;4988703;28;20527;-72
2023/10/11 06:57:17;;;;;;;23.00;8.50;;;;;;;16.43;100.00;101697.59;4982777;28;20505;-70
2023/10/11 06:59:43;;;;;;;18.20;8.37;;;;;;;16.44;100.00;101696.53;4984071;28;20433;-70
2023/10/11 07:02:17;;;;;;;18.33;8.60;;;;;;;16.10;100.00;101631.94;4983112;28;20475;-69
2023/10/11 07:04:52;;;;;;;19.80;9.40;;;;;;;16.44;100.00;101693.81;4984651;28;20486;-69
2023/10/11 07:07:18;;;;;;;22.60;7.87;;;;;;;16.26;100.00;101645.00;4982671;28;20476;-70
2023/10/11 07:09:56;;;;;;;18.47;8.77;;;;;;;16.36;100.00;101667.00;4984899;28;20436;-70
2023/10/11 07:12:39;;;;;;;16.43;8.73;;;;;;;16.51;100.00;101693.78;4989386;28;20192;-69
2023/10/11 07:15:07;;;;;;;18.77;8.63;;;;;;;16.48;100.00;101667.94;4984840;28;20445;-69
2023/10/11 07:17:33;;;;;;;24.53;10.30;;;;;;;16.26;100.00;101629.56;4988344;28;20606;-70
2023/10/11 07:19:58;;;;;;;24.73;8.40;;;;;;;16.04;100.00;101596.59;4988346;28;20958;-69
2023/10/11 07:22:27;;;;;;;15.47;8.20;;;;;;;16.48;100.00;101643.59;4984286;28;20221;-70
2023/10/11 07:25:36;;;;;;;26.53;9.23;;;;;;;16.43;100.00;101638.00;4985385;28;20285;-70
2023/10/11 07:27:53;;;;;;;16.77;8.30;;;;;;;16.34;100.00;101614.94;4986174;28;20475;-69
2023/10/11 07:30:19;;;;;;;19.30;9.17;;;;;;;16.52;100.00;101635.88;4986610;28;20543;-70
2023/10/11 07:32:45;;;;;;;19.17;8.50;;;;;;;16.10;100.00;101565.13;4986110;28;20807;-70
2023/10/11 07:35:19;;;;;;;22.30;8.90;;;;;;;16.41;100.00;101615.72;4985264;28;20418;-70
2023/10/11 07:37:44;;;;;;;18.27;8.90;;;;;;;16.49;100.00;101639.03;4985431;28;20205;-70
2023/10/11 07:40:12;;;;;;;25.13;8.80;;;;;;;16.56;100.00;101647.09;4985281;28;20433;-70
2023/10/11 07:42:38;;;;;;;17.33;8.60;;;;;;;15.91;100.00;101537.16;4982837;28;20627;-70
2023/10/11 07:45:12;;;;;;;20.30;8.40;;;;;;;16.62;100.00;101648.91;4983902;28;20585;-70
2023/10/11 07:47:48;;;;;;;19.63;9.53;;;;;;;16.54;100.00;101622.09;4987835;28;20475;-69
2023/10/11 07:50:22;;;;;;;13.97;8.07;;;;;;;16.66;100.00;101632.03;4984135;28;20441;-70
2023/10/11 07:52:48;;;;;;;16.57;8.37;;;;;;;16.40;100.00;101583.44;4983516;28;20439;-69
2023/10/11 07:55:14;;;;;;;23.30;8.83;;;;;;;16.64;100.00;101619.75;4982607;28;20440;-70
2023/10/11 07:57:44;;;;;;;18.77;8.30;;;;;;;16.69;100.00;101619.88;4987158;28;20233;-69
2023/10/11 08:00:18;;;;;;;20.10;8.27;;;;;;;16.76;100.00;101623.41;4985412;28;20294;-70
2023/10/11 08:03:02;;;;;;;16.20;7.70;;;;;;;16.81;100.00;101620.88;4981011;28;20441;-70
2023/10/11 08:05:29;;;;;;;20.67;7.73;;;;;;;16.66;100.00;101601.38;4983490;28;20428;-69
2023/10/11 08:07:55;;;;;;;15.20;8.13;;;;;;;16.79;100.00;101605.91;4987039;28;20456;-69
2023/10/11 08:10:33;;;;;;;17.93;7.53;;;;;;;16.93;100.00;101616.41;4984940;28;20425;-70
2023/10/11 08:13:08;;;;;;;21.37;7.70;;;;;;;16.33;100.00;101534.78;4978710;28;20452;-70
2023/10/11 08:15:38;;;;;;;15.47;6.83;;;;;;;16.39;100.00;101533.88;4983576;28;20940;-70
2023/10/11 08:18:04;;;;;;;17.80;7.87;;;;;;;16.83;100.00;101607.09;4981618;28;20514;-70
2023/10/11 08:20:29;;;;;;;16.67;8.47;;;;;;;15.62;100.00;101460.06;4985456;28;20433;-69
2023/10/11 08:22:58;;;;;;;21.53;8.77;;;;;;;16.33;100.00;101552.91;4990887;28;20425;-70
2023/10/11 08:25:27;;;;;;;19.60;9.40;;;;;;;16.86;100.00;101633.75;4984754;28;20178;-70
2023/10/11 08:28:10;;;;;;;14.37;8.20;;;;;;;16.84;100.00;101631.28;4984113;28;20448;-70
2023/10/11 08:30:37;;;;;;;26.47;8.80;;;;;;;16.84;100.00;101622.34;4983354;28;20483;-69
2023/10/11 08:33:04;;;;;;;20.63;7.87;;;;;;;16.84;100.00;101615.03;4985277;28;20495;-69
2023/10/11 08:35:32;;;;;;;16.13;8.00;;;;;;;16.56;100.00;101568.56;4986359;28;20850;-69
2023/10/11 08:38:05;;;;;;;16.80;7.67;;;;;;;16.92;100.00;101613.91;4986696;28;20445;-69
2023/10/11 08:40:37;;;;;;;17.37;7.07;;;;;;;16.58;100.00;101567.28;4987162;28;20483;-70
2023/10/11 08:43:03;;;;;;;18.17;8.40;;;;;;;16.60;100.00;101583.28;4983376;28;20441;-70
2023/10/11 08:45:59;;;;;;;14.17;7.90;;;;;;;16.91;100.00;101621.19;4985379;28;20435;-70
2023/10/11 08:48:25;;;;;;;17.27;7.40;;;;;;;16.82;100.00;101613.59;4974366;28;20963;-70
2023/10/11 08:50:54;;;;;;;18.83;9.17;;;;;;;16.88;100.00;101637.91;4986960;28;20450;-70
2023/10/11 08:53:26;;;;;;;17.70;8.20;;;;;;;16.91;100.00;101629.34;4984520;28;20665;-70
2023/10/11 08:56:02;;;;;;;21.67;9.13;;;;;;;16.90;100.00;101629.56;4983687;28;20440;-70
2023/10/11 08:58:28;;;;;;;19.80;8.80;;;;;;;16.90;100.00;101633.09;4981859;28;20476;-70
2023/10/11 09:00:55;;;;;;;16.90;8.50;;;;;;;16.83;100.00;101624.19;4985107;28;20436;-70
2023/10/11 09:03:26;;;;;;;21.73;8.40;;;;;;;16.22;100.00;101541.72;4986755;28;20192;-70
2023/10/11 09:05:59;;;;;;;18.93;7.40;;;;;;;16.24;100.00;101539.63;4988738;28;20482;-70
2023/10/11 09:08:33;;;;;;;16.03;8.30;;;;;;;16.90;100.00;101654.78;4988899;28;20470;-70
2023/10/11 09:11:11;;;;;;;19.57;7.63;;;;;;;16.93;100.00;101662.47;4987210;28;20435;-70
2023/10/11 09:13:38;;;;;;;18.10;6.93;;;;;;;16.77;100.00;101645.91;4988096;28;20931;-69
2023/10/11 09:16:13;;;;;;;15.60;8.57;;;;;;;16.28;100.00;101567.06;4987485;28;20497;-69
2023/10/11 09:19:05;;;;;;;14.87;7.53;;;;;;;16.40;100.00;101603.25;4985029;28;20456;-69
2023/10/11 09:21:35;;;;;;;14.73;7.23;;;;;;;16.54;100.00;101617.50;4981703;28;20555;-69
2023/10/11 09:24:00;;;;;;;17.37;8.30;;;;;;;16.07;100.00;101548.50;4987476;28;20441;-70
2023/10/11 09:26:34;;;;;;;17.13;7.37;;;;;;;16.46;100.00;101637.56;4988710;28;20472;-70
2023/10/11 09:29:03;;;;;;;19.97;7.87;;;;;;;14.36;100.00;101277.78;4984452;28;20276;-70
2023/10/11 09:31:32;;;;;;;10.43;6.30;;;;;;;16.84;100.00;101676.53;4985178;28;20437;-70
2023/10/11 09:34:05;;;;;;;13.47;6.60;;;;;;;17.01;100.00;101693.91;4987699;28;20444;-70
2023/10/11 09:36:31;;;;;;;14.80;6.20;;;;;;;17.01;100.00;101696.59;4987434;28;20517;-69
2023/10/11 09:38:58;;;;;;;16.00;7.23;;;;;;;16.55;100.00;101640.00;4989018;28;20441;-69
2023/10/11 09:41:40;;;;;;;15.17;6.70;;;;;;;17.05;100.00;101702.41;4989045;28;20421;-69
2023/10/11 09:44:10;;;;;;;12.27;6.30;;;;;;;16.94;100.00;101685.78;4983977;28;20450;-70
2023/10/11 09:46:36;;;;;;;11.20;5.63;;;;;;;17.20;100.00;101705.59;4989555;28;20827;-70
2023/10/11 09:49:12;;;;;;;17.37;6.70;;;;;;;17.13;100.00;101675.03;4986110;28;20472;-69
2023/10/11 09:51:41;;;;;;;12.73;6.50;;;;;;;16.12;100.00;101556.78;5031427;23;20693;-76
2023/10/11 09:54:14;;;;;;;12.67;5.70;;;;;;;14.99;100.00;101370.81;4992513;28;20444;-77
2023/10/11 09:56:48;;;;;;;9.73;4.67;;;;;;;15.96;100.00;101539.19;4987225;28;20472;-76
2023/10/11 09:59:36;;;;;;;10.93;4.63;;;;;;;14.94;100.00;101333.66;4997990;28;20551;-77
2023/10/11 10:02:19;;;;;;;8.70;4.63;;;;;;;15.74;100.00;101480.03;5004423;28;20440;-76
2023/10/11 10:04:49;;;;;;;8.50;4.60;;;;;;;17.34;100.00;101669.19;5004728;28;20442;-76
2023/10/11 10:07:25;;;;;;;7.90;4.70;;;;;;;15.24;100.00;101366.31;4996564;28;20492;-76
2023/10/11 10:09:53;;;;;;;9.07;4.27;;;;;;;15.27;100.00;101319.09;5006234;28;20968;-77
2023/10/11 10:12:22;;;;;;;11.13;4.50;;;;;;;15.79;100.00;101422.56;5006048;28;20421;-77
2023/10/11 10:15:12;;;;;;;12.60;4.67;;;;;;;17.46;100.00;101622.34;5007830;28;20447;-76
2023/10/11 10:17:38;;;;;;;9.27;4.20;;;;;;;15.25;100.00;101257.19;5005576;28;20745;-79
2023/10/11 10:20:38;;;;;;;8.60;4.20;;;;;;;17.67;100.00;101596.63;5000934;28;20467;-79
2023/10/11 10:23:16;;;;;;;12.10;4.07;;;;;;;17.67;100.00;101586.59;5005017;28;21376;-78
2023/10/11 10:25:49;;;;;;;9.80;4.20;;;;;;;17.90;100.00;101575.06;4999395;28;20876;-77
2023/10/11 10:28:47;;;;;;;9.77;3.80;;;;;;;16.84;100.00;101354.09;5002756;28;20964;-77
2023/10/11 10:31:17;;;;;;;11.13;4.57;;;;;;;16.29;100.00;101243.94;4996331;28;20447;-76
2023/10/11 10:33:50;;;;;;;8.87;4.20;;;;;;;15.69;100.00;101144.50;5003268;28;20436;-75
2023/10/11 10:36:21;;;;;;;10.30;4.53;;;;;;;17.98;100.00;101541.38;5004272;28;20436;-78
2023/10/11 10:39:46;;;;;;;10.23;4.17;;;;;;;17.91;100.00;101535.22;5009346;28;20546;-77
2023/10/11 10:42:12;;;;;;;9.97;4.07;;;;;;;15.55;100.00;101229.47;4997629;28;20450;-77
2023/10/11 10:44:51;;;;;;;10.00;4.53;;;;;;;16.15;100.00;101339.84;5000803;28;20444;-77
2023/10/11 10:47:26;;;;;;;7.13;4.20;;;;;;;15.24;100.00;101147.41;4999590;28;20605;-77
2023/10/11 10:49:53;;;;;;;10.20;4.20;;;;;;;15.56;100.00;101217.59;4998126;28;20460;-77
2023/10/11 10:52:29;;;;;;;12.00;5.10;;;;;;;16.21;100.00;101282.94;4995369;28;20443;-77
2023/10/11 10:55:02;;;;;;;8.00;4.50;;;;;;;17.10;100.00;101404.44;4999243;28;20924;-75
2023/10/11 10:57:31;;;;;;;9.97;4.60;;;;;;;15.55;100.00;101143.78;5000001;28;20431;-77
2023/10/11 11:00:05;;;;;;;8.47;4.90;;;;;;;16.49;100.00;101335.75;5005188;28;20502;-77
2023/10/11 11:02:35;;;;;;;13.73;4.70;;;;;;;15.95;100.00;101216.41;5005523;28;20471;-75
2023/10/11 11:05:01;;;;;;;9.90;4.50;;;;;;;17.24;100.00;101308.31;5004122;28;20493;-78
2023/10/11 11:07:27;;;;;;;8.60;4.60;;;;;;;16.90;100.00;101221.25;4996794;28;20473;-76
2023/10/11 11:09:57;;;;;;;8.37;4.47;;;;;;;16.73;100.00;101248.13;5002106;28;20482;-76
2023/10/11 11:12:28;;;;;;;9.23;4.00;;;;;;;16.00;100.00;101162.47;5005356;28;20177;-76
2023/10/11 11:14:55;;;;;;;8.10;4.63;;;;;;;16.71;100.00;101300.88;5002601;28;20463;-76
2023/10/11 11:17:23;;;;;;;10.23;4.07;;;;;;;17.29;100.00;101337.44;5001493;28;20424;-78
2023/10/11 11:22:52;;;;;;;7.03;4.03;;;;;;;16.08;100.00;101130.72;5001297;28;20536;-78
2023/10/11 11:28:17;;;;;;;9.40;4.23;;;;;;;18.17;100.00;101494.09;5004020;28;20891;-78
2023/10/11 11:30:51;;;;;;;9.77;4.20;;;;;;;18.21;100.00;101491.72;5006235;28;20444;-77
2023/10/11 11:33:27;;;;;;;6.83;3.70;;;;;;;17.48;100.00;101390.53;5001744;28;20483;-78
2023/10/11 11:35:55;;;;;;;10.50;4.10;;;;;;;18.29;100.00;101502.25;5005248;28;20944;-77
2023/10/11 11:38:23;;;;;;;8.13;3.50;;;;;;;18.38;100.00;101484.56;5003049;28;20510;-74
2023/10/11 11:41:05;;;;;;;7.53;3.03;;;;;;;18.26;100.00;101497.28;5004908;28;20427;-76
2023/10/11 11:43:33;;;;;;;6.77;3.40;;;;;;;18.24;100.00;101488.56;5001784;28;20475;-78
2023/10/11 11:46:01;;;;;;;7.47;3.87;;;;;;;18.19;100.00;101469.41;4996778;28;20476;-77
2023/10/11 11:48:28;;;;;;;12.00;4.60;;;;;;;17.91;100.00;101434.81;5001961;28;20483;-78
2023/10/11 11:50:56;;;;;;;11.57;3.80;;;;;;;17.61;100.00;101381.38;5004070;28;20429;-77
2023/10/11 11:53:22;;;;;;;9.73;4.13;;;;;;;17.76;100.00;101400.75;5003586;28;20470;-78
2023/10/11 11:55:47;;;;;;;9.60;3.80;;;;;;;17.86;100.00;101396.69;5006646;28;20460;-77
2023/10/11 11:58:16;;;;;;;8.53;3.60;;;;;;;18.28;100.00;101447.13;5008298;28;20593;-77
2023/10/11 12:00:45;;;;;;;5.57;2.83;;;;;;;18.44;100.00;101440.16;4998347;28;20414;-77
2023/10/11 12:03:11;;;;;;;9.47;3.03;;;;;;;18.36;100.00;101443.22;4999477;28;20498;-74
2023/10/11 12:05:40;;;;;;;7.87;3.77;;;;;;;18.22;100.00;101409.22;5002990;28;20444;-77
2023/10/11 12:08:08;;;;;;;6.80;2.50;;;;;;;18.40;100.00;101425.41;5002730;28;20487;-75
2023/10/11 12:10:36;;;;;;;6.20;2.87;;;;;;;18.46;100.00;101416.31;5002988;28;20823;-76
2023/10/11 12:13:05;;;;;;;7.00;3.13;;;;;;;18.37;100.00;101416.88;5005473;28;20432;-77
2023/10/11 12:15:37;;;;;;;8.00;3.60;;;;;;;17.96;100.00;101326.34;5003562;28;20505;-79